createdAt,value
2018-06-08T00:01:33.165Z,2.17
2018-06-08T00:04:02.074Z,2.47
2018-06-08T00:06:30.974Z,1.67
2018-06-08T00:08:59.949Z,1.40
2018-06-08T00:11:28.845Z,1.80
2018-06-08T00:13:57.781Z,1.60
2018-06-08T00:16:26.694Z,1.67
2018-06-08T00:18:55.615Z,1.50
2018-06-08T00:21:24.536Z,1.40
2018-06-08T00:23:53.482Z,1.70
2018-06-08T00:26:22.433Z,1.23
2018-06-08T00:28:51.348Z,1.00
2018-06-08T00:31:20.253Z,1.50
2018-06-08T00:33:49.228Z,1.30
2018-06-08T00:36:17.708Z,1.50
2018-06-08T00:38:46.614Z,1.70
2018-06-08T00:41:15.124Z,1.47
2018-06-08T00:43:44.030Z,1.53
2018-06-08T00:46:12.927Z,1.20
2018-06-08T00:48:41.845Z,1.47
2018-06-08T00:51:10.762Z,1.40
2018-06-08T00:53:39.663Z,1.57
2018-06-08T00:56:19.389Z,1.43
2018-06-08T00:58:48.314Z,1.37
2018-06-08T01:01:17.218Z,1.00
2018-06-08T01:03:46.146Z,1.17
2018-06-08T01:06:15.042Z,1.40
2018-06-08T01:08:43.528Z,1.53
2018-06-08T01:11:12.442Z,1.70
2018-06-08T01:13:41.336Z,1.40
2018-06-08T01:16:10.270Z,1.70
2018-06-08T01:18:39.225Z,1.40
2018-06-08T01:21:08.127Z,1.30
2018-06-08T01:23:37.069Z,1.47
2018-06-08T01:26:05.549Z,1.60
2018-06-08T01:28:34.455Z,1.33
2018-06-08T01:31:02.952Z,1.43
2018-06-08T01:33:31.846Z,1.47
2018-06-08T01:36:00.729Z,1.50
2018-06-08T01:38:29.617Z,1.57
2018-06-08T01:40:58.530Z,1.50
2018-06-08T01:43:27.472Z,1.80
2018-06-08T01:45:56.380Z,1.50
2018-06-08T01:48:25.341Z,1.40
2018-06-08T01:50:54.287Z,1.83
2018-06-08T01:53:23.187Z,1.87
2018-06-08T01:55:52.146Z,1.50
2018-06-08T01:58:21.073Z,1.50
2018-06-08T02:00:50.058Z,1.63
2018-06-08T02:03:18.971Z,2.10
2018-06-08T02:05:47.857Z,1.60
2018-06-08T02:08:16.772Z,1.50
2018-06-08T02:10:45.701Z,1.57
2018-06-08T02:13:14.617Z,1.80
2018-06-08T02:15:43.552Z,2.10
2018-06-08T02:18:12.478Z,1.30
2018-06-08T02:20:41.770Z,1.73
2018-06-08T02:23:10.263Z,1.97
2018-06-08T02:25:39.161Z,1.57
2018-06-08T02:28:08.065Z,1.30
2018-06-08T02:30:37.007Z,1.70
2018-06-08T02:33:05.950Z,1.97
2018-06-08T02:35:34.841Z,1.40
2018-06-08T02:38:03.773Z,1.70
2018-06-08T02:40:32.707Z,1.40
2018-06-08T02:43:01.612Z,1.20
2018-06-08T02:45:30.521Z,2.00
2018-06-08T02:47:59.490Z,2.33
2018-06-08T02:57:10.209Z,1.60
2018-06-08T02:59:39.126Z,2.03
2018-06-08T03:02:08.062Z,2.23
2018-06-08T03:04:36.984Z,2.00
2018-06-08T03:07:06.503Z,1.83
2018-06-08T03:09:35.434Z,1.90
2018-06-08T03:12:04.389Z,1.67
2018-06-08T03:14:33.404Z,1.70
2018-06-08T03:17:02.318Z,1.27
2018-06-08T03:19:31.233Z,1.30
2018-06-08T03:22:00.166Z,1.40
2018-06-08T03:24:29.116Z,1.37
2018-06-08T03:26:58.069Z,1.40
2018-06-08T03:29:26.993Z,1.60
2018-06-08T03:31:55.924Z,1.90
2018-06-08T03:34:24.902Z,1.30
2018-06-08T03:36:53.819Z,1.53
2018-06-08T03:39:22.745Z,1.30
2018-06-08T03:41:51.666Z,1.80
2018-06-08T03:44:20.576Z,1.57
2018-06-08T03:46:49.483Z,1.83
2018-06-08T03:49:18.446Z,1.97
2018-06-08T03:51:47.357Z,1.40
2018-06-08T03:54:16.282Z,1.70
2018-06-08T03:56:48.101Z,1.80
2018-06-08T03:59:18.125Z,1.87
2018-06-08T04:01:47.085Z,1.47
2018-06-08T04:04:15.989Z,1.47
2018-06-08T04:06:44.896Z,1.57
2018-06-08T04:09:13.806Z,1.50
2018-06-08T04:11:42.714Z,1.57
2018-06-08T04:14:11.652Z,1.80
2018-06-08T04:16:40.567Z,1.50
2018-06-08T04:19:09.485Z,1.60
2018-06-08T04:21:38.405Z,1.40
2018-06-08T04:24:07.382Z,1.53
2018-06-08T04:26:36.313Z,1.70
2018-06-08T04:29:05.257Z,1.60
2018-06-08T04:31:34.166Z,1.70
2018-06-08T04:34:03.133Z,1.77
2018-06-08T04:36:32.046Z,1.70
2018-06-08T04:39:00.943Z,1.30
2018-06-08T04:41:29.849Z,2.10
2018-06-08T04:43:58.751Z,1.80
2018-06-08T04:46:27.704Z,1.70
2018-06-08T04:48:56.624Z,1.60
2018-06-08T04:51:25.543Z,2.17
2018-06-08T04:53:54.453Z,1.80
2018-06-08T04:56:23.365Z,1.97
2018-06-08T04:58:52.325Z,2.07
2018-06-08T05:01:21.296Z,1.50
2018-06-08T05:03:50.229Z,1.70
2018-06-08T05:06:19.117Z,1.73
2018-06-08T05:08:48.033Z,2.17
2018-06-08T05:11:16.921Z,1.53
2018-06-08T05:13:45.874Z,1.60
2018-06-08T05:16:14.769Z,2.00
2018-06-08T05:18:43.665Z,1.70
2018-06-08T05:21:12.561Z,2.17
2018-06-08T05:23:41.450Z,2.20
2018-06-08T05:26:10.402Z,2.93
2018-06-08T05:28:39.321Z,2.40
2018-06-08T05:31:08.217Z,2.50
2018-06-08T05:33:37.105Z,2.10
2018-06-08T05:36:06.091Z,2.80
2018-06-08T05:38:35.014Z,2.27
2018-06-08T05:41:03.913Z,2.97
2018-06-08T05:43:32.800Z,3.13
2018-06-08T05:46:01.276Z,3.23
2018-06-08T05:48:30.292Z,3.10
2018-06-08T05:50:59.173Z,3.10
2018-06-08T05:53:28.069Z,2.70
2018-06-08T05:55:56.961Z,2.87
2018-06-08T05:58:25.853Z,3.43
2018-06-08T06:00:54.749Z,3.20
2018-06-08T06:03:23.637Z,2.70
2018-06-08T06:05:52.530Z,2.83
2018-06-08T06:08:21.441Z,3.17
2018-06-08T06:10:50.342Z,2.93
2018-06-08T06:13:19.261Z,3.63
2018-06-08T06:15:48.185Z,3.30
2018-06-08T06:18:17.078Z,3.40
2018-06-08T06:20:46.362Z,3.00
2018-06-08T06:23:15.264Z,4.30
2018-06-08T06:25:44.177Z,4.00
2018-06-08T06:28:13.069Z,3.73
2018-06-08T06:30:41.965Z,4.60
2018-06-08T06:33:10.867Z,4.60
2018-06-08T06:35:39.761Z,4.20
2018-06-08T06:38:08.656Z,3.67
2018-06-08T06:40:37.560Z,4.03
2018-06-08T06:43:06.593Z,3.73
2018-06-08T06:45:35.509Z,4.00
2018-06-08T06:48:04.693Z,4.03
2018-06-08T06:50:33.770Z,3.70
2018-06-08T06:53:02.815Z,3.73
2018-06-08T06:55:31.919Z,3.33
2018-06-08T06:58:01.188Z,4.33
2018-06-08T07:00:30.110Z,3.90
2018-06-08T07:02:59.043Z,4.00
2018-06-08T07:05:30.085Z,3.37
2018-06-08T07:08:00.730Z,3.47
2018-06-08T07:10:31.033Z,3.77
2018-06-08T07:13:00.989Z,3.60
2018-06-08T07:15:30.838Z,3.60
2018-06-08T07:18:00.966Z,3.20
2018-06-08T07:20:31.035Z,3.83
2018-06-08T07:23:01.505Z,3.30
2018-06-08T07:25:32.448Z,3.47
2018-06-08T07:28:03.597Z,3.53
2018-06-08T07:30:35.722Z,3.30
2018-06-08T07:33:09.173Z,3.47
2018-06-08T07:35:44.464Z,3.03
2018-06-08T07:38:16.776Z,3.77
2018-06-08T07:40:52.522Z,4.00
2018-06-08T07:43:21.811Z,3.40
2018-06-08T07:45:53.339Z,3.07
2018-06-08T07:48:26.113Z,3.10
2018-06-08T07:51:02.106Z,2.87
2018-06-08T07:53:34.197Z,3.60
2018-06-08T07:56:07.249Z,3.23
2018-06-08T07:58:36.949Z,3.20
2018-06-08T08:01:07.217Z,3.00
2018-06-08T08:03:36.912Z,2.33
2018-06-08T08:06:09.555Z,2.63
2018-06-08T08:08:40.734Z,2.63
2018-06-08T08:11:14.211Z,2.30
2018-06-08T08:13:44.094Z,3.10
2018-06-08T08:16:19.931Z,3.17
2018-06-08T08:18:49.616Z,2.90
2018-06-08T08:21:19.013Z,2.43
2018-06-08T08:23:52.157Z,2.80
2018-06-08T08:26:26.315Z,2.27
2018-06-08T08:28:55.229Z,2.83
2018-06-08T08:31:24.197Z,2.40
2018-06-08T08:33:53.154Z,2.60
2018-06-08T08:36:22.110Z,2.30
2018-06-08T08:38:51.028Z,2.93
2018-06-08T08:41:20.045Z,2.63
2018-06-08T08:43:48.997Z,2.80
2018-06-08T08:46:17.914Z,2.63
2018-06-08T08:48:46.860Z,2.60
2018-06-08T08:51:15.863Z,2.50
2018-06-08T08:53:44.799Z,2.47
2018-06-08T08:56:13.765Z,2.93
2018-06-08T08:58:42.713Z,2.50
2018-06-08T09:01:11.646Z,2.57
2018-06-08T09:03:40.594Z,2.50
2018-06-08T09:06:09.525Z,2.13
2018-06-08T09:08:38.436Z,2.33
2018-06-08T09:11:07.393Z,2.00
2018-06-08T09:13:36.562Z,2.23
2018-06-08T09:16:06.657Z,2.10
2018-06-08T09:18:36.825Z,1.90
2018-06-08T09:21:06.832Z,2.30
2018-06-08T09:23:38.684Z,2.33
2018-06-08T09:26:11.486Z,1.80
2018-06-08T09:28:47.504Z,1.80
2018-06-08T09:31:21.957Z,2.00
2018-06-08T09:33:53.934Z,1.67
2018-06-08T09:36:30.550Z,1.30
2018-06-08T09:39:06.484Z,1.50
2018-06-08T09:41:37.199Z,2.10
2018-06-08T09:44:09.731Z,2.10
2018-06-08T09:46:43.519Z,1.77
2018-06-08T09:49:16.706Z,1.50
2018-06-08T09:51:50.397Z,1.70
2018-06-08T09:54:23.334Z,1.57
2018-06-08T09:56:56.042Z,1.30
2018-06-08T09:59:26.435Z,1.57
2018-06-08T10:02:00.586Z,1.67
2018-06-08T10:04:34.691Z,1.20
2018-06-08T10:07:09.703Z,1.53
2018-06-08T10:09:40.511Z,1.10
2018-06-08T10:12:09.970Z,1.10
2018-06-08T10:14:43.218Z,1.10
2018-06-08T10:17:20.765Z,1.13
2018-06-08T10:19:51.842Z,1.00
2018-06-08T10:22:22.003Z,1.10
2018-06-08T10:24:51.896Z,1.10
2018-06-08T10:27:24.498Z,1.20
2018-06-08T10:29:57.177Z,1.30
2018-06-08T10:32:27.628Z,1.20
2018-06-08T10:34:58.082Z,1.20
2018-06-08T10:37:27.558Z,1.17
2018-06-08T10:40:00.925Z,1.27
2018-06-08T10:42:33.858Z,1.50
2018-06-08T10:45:07.696Z,1.13
2018-06-08T10:47:41.226Z,0.97
2018-06-08T10:50:12.834Z,1.00
2018-06-08T10:52:43.278Z,1.10
2018-06-08T10:55:14.835Z,0.90
2018-06-08T10:57:45.141Z,1.10
2018-06-08T11:00:19.428Z,1.60
2018-06-08T11:02:50.934Z,1.40
2018-06-08T11:05:25.670Z,1.23
2018-06-08T11:08:00.876Z,1.20
2018-06-08T11:10:33.717Z,1.20
2018-06-08T11:13:04.634Z,1.57
2018-06-08T11:15:37.218Z,1.13
2018-06-08T11:18:11.251Z,1.00
2018-06-08T11:20:43.254Z,1.50
2018-06-08T11:23:16.557Z,1.30
2018-06-08T11:25:49.277Z,1.10
2018-06-08T11:28:20.595Z,1.10
2018-06-08T11:30:50.016Z,1.40
2018-06-08T11:33:20.622Z,1.40
2018-06-08T11:35:54.744Z,1.27
2018-06-08T11:38:27.912Z,1.20
2018-06-08T11:40:58.419Z,1.50
2018-06-08T11:43:28.418Z,1.40
2018-06-08T11:45:58.854Z,1.30
2018-06-08T11:48:29.449Z,1.40
2018-06-08T11:51:00.994Z,1.30
2018-06-08T11:53:33.966Z,1.20
2018-06-08T11:56:05.962Z,1.40
2018-06-08T11:58:39.083Z,1.40
2018-06-08T12:01:09.403Z,1.30
2018-06-08T12:03:44.154Z,1.30
2018-06-08T12:06:19.166Z,1.43
2018-06-08T12:08:49.318Z,1.27
2018-06-08T12:11:21.205Z,1.17
2018-06-08T12:13:54.815Z,1.43
2018-06-08T12:16:31.113Z,1.27
2018-06-08T12:19:02.741Z,1.80
2018-06-08T12:21:33.734Z,1.90
2018-06-08T12:24:06.977Z,1.67
2018-06-08T12:26:39.825Z,1.90
2018-06-08T12:29:14.542Z,1.60
2018-06-08T12:31:50.028Z,1.63
2018-06-08T12:34:22.741Z,1.70
2018-06-08T12:36:54.379Z,1.83
2018-06-08T12:39:27.809Z,1.60
2018-06-08T12:42:02.270Z,1.80
2018-06-08T12:44:34.429Z,1.70
2018-06-08T12:47:05.982Z,2.30
2018-06-08T12:49:44.596Z,2.10
2018-06-08T12:52:21.081Z,1.97
2018-06-08T12:54:56.370Z,2.20
2018-06-08T12:57:36.866Z,1.77
2018-06-08T13:00:13.961Z,1.70
2018-06-08T13:02:46.392Z,1.90
2018-06-08T13:05:20.040Z,2.00
2018-06-08T13:07:51.575Z,1.70
2018-06-08T13:10:25.567Z,1.83
2018-06-08T13:12:57.386Z,1.50
2018-06-08T13:15:30.411Z,2.07
2018-06-08T13:18:00.607Z,1.73
2018-06-08T13:20:36.056Z,1.87
2018-06-08T13:23:11.349Z,1.60
2018-06-08T13:25:40.943Z,1.93
2018-06-08T13:28:18.464Z,1.60
2018-06-08T13:30:53.410Z,1.50
2018-06-08T13:33:25.544Z,1.80
2018-06-08T13:35:56.534Z,1.90
2018-06-08T13:38:29.686Z,1.37
2018-06-08T13:41:03.630Z,1.57
2018-06-08T13:43:37.558Z,1.70
2018-06-08T13:46:19.358Z,1.60
2018-06-08T13:48:52.868Z,1.83
2018-06-08T13:51:26.085Z,2.00
2018-06-08T13:53:58.102Z,1.70
2018-06-08T13:56:29.481Z,1.50
2018-06-08T13:59:01.091Z,1.20
2018-06-08T14:01:32.341Z,1.37
2018-06-08T14:04:05.618Z,1.30
2018-06-08T14:06:35.843Z,1.30
2018-06-08T14:09:16.842Z,1.73
2018-06-08T14:11:51.217Z,1.27
2018-06-08T14:14:21.709Z,1.23
2018-06-08T14:16:52.301Z,1.20
2018-06-08T14:19:21.329Z,0.90
2018-06-08T14:21:56.106Z,1.50
2018-06-08T14:24:29.681Z,1.27
2018-06-08T14:27:03.345Z,1.10
2018-06-08T14:29:39.109Z,1.37
2018-06-08T14:32:12.305Z,1.20
2018-06-08T14:34:52.710Z,1.20
2018-06-08T14:37:26.367Z,1.50
2018-06-08T14:40:01.616Z,1.10
2018-06-08T14:42:31.646Z,1.03
2018-06-08T14:45:11.549Z,1.57
2018-06-08T14:47:43.393Z,1.20
2018-06-08T14:50:18.684Z,0.90
2018-06-08T14:52:56.970Z,0.87
2018-06-08T14:55:31.026Z,1.00
2018-06-08T14:58:02.033Z,1.07
2018-06-08T15:00:34.509Z,1.00
2018-06-08T15:03:08.755Z,0.70
2018-06-08T15:05:38.186Z,0.83
2018-06-08T15:08:10.479Z,0.90
2018-06-08T15:10:40.591Z,0.90
2018-06-08T15:13:14.849Z,1.10
2018-06-08T15:15:48.777Z,1.00
2018-06-08T15:18:22.812Z,0.70
2018-06-08T15:20:54.789Z,0.80
2018-06-08T15:23:29.300Z,0.93
2018-06-08T15:26:01.898Z,0.80
2018-06-08T15:28:35.261Z,0.90
2018-06-08T15:31:04.503Z,0.97
2018-06-08T15:33:38.127Z,1.00
2018-06-08T15:36:10.332Z,0.90
2018-06-08T15:38:43.397Z,1.00
2018-06-08T15:41:12.961Z,1.00
2018-06-08T15:43:47.009Z,0.80
2018-06-08T15:46:21.358Z,0.90
2018-06-08T15:48:54.721Z,0.80
2018-06-08T15:51:29.069Z,0.70
2018-06-08T15:54:00.194Z,0.87
2018-06-08T15:56:34.908Z,0.90
2018-06-08T15:59:08.628Z,0.83
2018-06-08T16:01:40.612Z,0.80
2018-06-08T16:04:13.657Z,1.10
2018-06-08T16:06:47.671Z,1.00
2018-06-08T16:09:20.981Z,0.90
2018-06-08T16:11:53.694Z,1.07
2018-06-08T16:14:26.918Z,0.97
2018-06-08T16:16:59.813Z,1.00
2018-06-08T16:19:32.807Z,1.10
2018-06-08T16:22:05.706Z,1.13
2018-06-08T16:24:39.785Z,1.00
2018-06-08T16:27:12.847Z,1.00
2018-06-08T16:29:45.757Z,1.40
2018-06-08T16:32:18.698Z,1.00
2018-06-08T16:34:51.886Z,1.27
2018-06-08T16:37:23.986Z,0.93
2018-06-08T16:39:56.911Z,1.10
2018-06-08T16:42:29.821Z,1.10
2018-06-08T16:45:02.842Z,1.10
2018-06-08T16:47:35.897Z,1.20
2018-06-08T16:50:09.026Z,0.90
2018-06-08T16:52:41.012Z,1.00
2018-06-08T16:55:10.045Z,1.40
2018-06-08T16:57:38.957Z,1.10
2018-06-08T17:00:07.890Z,1.40
2018-06-08T17:02:36.805Z,1.00
2018-06-08T17:05:06.041Z,1.03
2018-06-08T17:07:34.988Z,1.20
2018-06-08T17:10:04.034Z,1.20
2018-06-08T17:12:33.015Z,1.30
2018-06-08T17:15:01.984Z,1.13
2018-06-08T17:17:30.898Z,1.20
2018-06-08T17:19:59.820Z,1.50
2018-06-08T17:22:28.729Z,1.10
2018-06-08T17:24:57.647Z,1.20
2018-06-08T17:27:26.586Z,1.30
2018-06-08T17:29:55.499Z,1.47
2018-06-08T17:32:24.438Z,1.03
2018-06-08T17:34:53.367Z,1.40
2018-06-08T17:37:22.355Z,1.30
2018-06-08T17:39:51.277Z,0.90
2018-06-08T17:42:20.225Z,1.27
2018-06-08T17:44:49.141Z,1.00
2018-06-08T17:47:18.078Z,1.20
2018-06-08T17:49:47.031Z,1.10
2018-06-08T17:52:15.949Z,1.00
2018-06-08T17:54:44.883Z,0.90
2018-06-08T17:57:13.852Z,0.80
2018-06-08T17:59:42.778Z,1.27
2018-06-08T18:02:11.778Z,0.83
2018-06-08T18:04:40.697Z,0.90
2018-06-08T18:07:09.642Z,0.80
2018-06-08T18:09:38.577Z,0.80
2018-06-08T18:12:07.537Z,0.87
2018-06-08T18:14:36.032Z,0.63
2018-06-08T18:17:05.068Z,0.90
2018-06-08T18:19:33.970Z,0.90
2018-06-08T18:22:02.930Z,0.80
2018-06-08T18:24:31.890Z,0.80
2018-06-08T18:27:00.835Z,0.70
2018-06-08T18:29:29.762Z,0.83
2018-06-08T18:31:58.681Z,0.73
2018-06-08T18:34:28.863Z,0.97
2018-06-08T18:36:57.832Z,0.70
2018-06-08T18:39:26.717Z,0.83
2018-06-08T18:41:55.617Z,0.80
2018-06-08T18:44:24.979Z,0.70
2018-06-08T18:46:53.885Z,0.80
2018-06-08T18:49:22.812Z,0.70
2018-06-08T18:51:51.859Z,0.97
2018-06-08T18:54:20.871Z,0.97
2018-06-08T18:56:49.829Z,0.87
2018-06-08T18:59:18.731Z,1.00
2018-06-08T19:01:47.718Z,0.83
2018-06-08T19:04:16.649Z,0.73
2018-06-08T19:06:49.675Z,0.93
2018-06-08T19:09:22.639Z,0.90
2018-06-08T19:11:52.578Z,0.97
2018-06-08T19:14:22.365Z,1.03
2018-06-08T19:16:53.364Z,0.90
2018-06-08T19:19:24.185Z,1.00
2018-06-08T19:21:53.956Z,1.07
2018-06-08T19:24:25.242Z,0.80
2018-06-08T19:26:57.900Z,1.10
2018-06-08T19:29:28.523Z,1.03
2018-06-08T19:31:58.771Z,1.10
2018-06-08T19:34:27.812Z,1.03
2018-06-08T19:36:56.948Z,1.20
2018-06-08T19:39:25.881Z,1.50
2018-06-08T19:41:56.426Z,0.90
2018-06-08T19:44:25.615Z,1.30
2018-06-08T19:46:56.195Z,1.30
2018-06-08T19:49:25.252Z,1.50
2018-06-08T19:51:54.282Z,1.40
2018-06-08T19:54:23.618Z,1.83
2018-06-08T19:56:52.897Z,2.00
2018-06-08T19:59:21.797Z,2.20
2018-06-08T20:01:50.725Z,2.17
2018-06-08T20:04:20.469Z,1.77
2018-06-08T20:06:49.397Z,1.80
2018-06-08T20:09:18.358Z,2.03
2018-06-08T20:11:47.329Z,1.80
2018-06-08T20:14:16.353Z,1.73
2018-06-08T20:16:45.307Z,2.10
2018-06-08T20:19:14.201Z,2.77
2018-06-08T20:21:43.149Z,2.00
2018-06-08T20:24:12.037Z,1.67
2018-06-08T20:26:40.929Z,1.77
2018-06-08T20:29:09.885Z,1.60
2018-06-08T20:31:38.788Z,1.70
2018-06-08T20:34:07.722Z,1.37
2018-06-08T20:36:36.699Z,1.33
2018-06-08T20:39:07.768Z,1.90
2018-06-08T20:41:36.721Z,1.80
2018-06-08T20:44:05.629Z,1.40
2018-06-08T20:46:34.562Z,1.60
2018-06-08T20:49:03.502Z,1.53
2018-06-08T20:51:32.397Z,1.53
2018-06-08T20:54:13.202Z,1.63
2018-06-08T20:56:46.574Z,1.40
2018-06-08T20:59:18.174Z,1.53
2018-06-08T21:01:47.110Z,1.70
2018-06-08T21:04:16.074Z,1.63
2018-06-08T21:06:45.025Z,1.30
2018-06-08T21:09:13.979Z,1.83
2018-06-08T21:11:42.901Z,1.80
2018-06-08T21:14:11.866Z,1.50
2018-06-08T21:16:40.962Z,1.40
2018-06-08T21:19:09.895Z,1.87
2018-06-08T21:21:38.838Z,2.00
2018-06-08T21:24:07.764Z,1.77
2018-06-08T21:26:36.736Z,1.67
2018-06-08T21:29:05.844Z,1.40
2018-06-08T21:31:34.789Z,1.50
2018-06-08T21:34:03.719Z,1.40
2018-06-08T21:36:37.278Z,1.37
2018-06-08T21:39:07.261Z,1.50
2018-06-08T21:41:39.680Z,1.40
2018-06-08T21:44:16.437Z,1.33
2018-06-08T21:46:45.436Z,1.50
2018-06-08T21:49:14.381Z,1.90
2018-06-08T21:51:51.750Z,1.63
2018-06-08T21:54:31.413Z,1.60
2018-06-08T21:57:16.754Z,1.80
2018-06-08T21:59:51.152Z,1.60
2018-06-08T22:02:20.421Z,1.70
2018-06-08T22:04:51.021Z,1.80
2018-06-08T22:07:28.520Z,1.40
2018-06-08T22:09:57.494Z,1.40
2018-06-08T22:12:26.492Z,1.50
2018-06-08T22:14:55.541Z,1.40
2018-06-08T22:17:24.541Z,1.97
2018-06-08T22:19:53.477Z,1.50
2018-06-08T22:22:22.586Z,1.70
2018-06-08T22:24:53.234Z,1.67
2018-06-08T22:27:23.463Z,1.70
2018-06-08T22:29:52.470Z,1.50
2018-06-08T22:32:22.030Z,1.70
2018-06-08T22:34:52.005Z,1.60
2018-06-08T22:37:26.422Z,1.50
2018-06-08T22:40:02.788Z,1.93
2018-06-08T22:42:35.134Z,1.73
2018-06-08T22:45:08.963Z,1.60
2018-06-08T22:47:45.094Z,2.10
2018-06-08T22:50:15.732Z,1.50
2018-06-08T22:52:50.304Z,1.60
2018-06-08T22:55:24.254Z,1.80
2018-06-08T22:57:55.901Z,2.00
2018-06-08T23:00:28.559Z,1.67
2018-06-08T23:02:57.571Z,1.73
2018-06-08T23:05:26.505Z,1.60
2018-06-08T23:07:56.415Z,1.70
2018-06-08T23:10:25.418Z,1.67
2018-06-08T23:12:54.346Z,1.50
2018-06-08T23:15:23.309Z,1.90
2018-06-08T23:17:52.252Z,1.90
2018-06-08T23:20:21.185Z,1.60
2018-06-08T23:22:50.113Z,1.57
2018-06-08T23:25:19.052Z,2.20
2018-06-08T23:27:47.996Z,2.00
2018-06-08T23:30:16.934Z,1.50
2018-06-08T23:32:45.849Z,2.27
2018-06-08T23:35:14.762Z,1.93
2018-06-08T23:37:43.718Z,1.50
2018-06-08T23:40:12.639Z,1.90
2018-06-08T23:42:41.561Z,1.33
2018-06-08T23:45:10.509Z,1.50
2018-06-08T23:47:39.429Z,1.60
2018-06-08T23:50:08.364Z,1.57
2018-06-08T23:52:37.335Z,1.60
2018-06-08T23:55:06.242Z,1.70
2018-06-08T23:57:35.165Z,1.90
